sensor_id;sensor_type;location;lat;lon;timestamp;pressure;altitude;pressure_sealevel;temperature;humidity
50696;BME280;36665;51.786;21.594;2023-07-13T00:02:46;97273.33;;;17.20;80.90
50696;BME280;36665;51.786;21.594;2023-07-13T00:11:09;97249.08;;;17.14;80.75
50696;BME280;36665;51.786;21.594;2023-07-13T00:19:33;97269.72;;;17.19;81.03
50696;BME280;36665;51.786;21.594;2023-07-13T00:27:58;97306.49;;;17.27;81.05
50696;BME280;36665;51.786;21.594;2023-07-13T00:36:22;97323.25;;;17.31;81.07
50696;BME280;36665;51.786;21.594;2023-07-13T00:45:04;97277.86;;;17.20;81.10
50696;BME280;36665;51.786;21.594;2023-07-13T00:53:29;97235.96;;;17.11;81.05
50696;BME280;36665;51.786;21.594;2023-07-13T01:01:54;97246.11;;;17.14;81.18
50696;BME280;36665;51.786;21.594;2023-07-13T01:10:22;97268.91;;;17.20;81.16
50696;BME280;36665;51.786;21.594;2023-07-13T01:18:45;97282.08;;;17.22;81.33
50696;BME280;36665;51.786;21.594;2023-07-13T01:27:10;97279.92;;;17.22;81.17
50696;BME280;36665;51.786;21.594;2023-07-13T01:35:35;97244.84;;;17.14;81.13
50696;BME280;36665;51.786;21.594;2023-07-13T01:43:58;97207.21;;;17.07;81.27
50696;BME280;36665;51.786;21.594;2023-07-13T01:52:21;97209.52;;;17.07;81.21
50696;BME280;36665;51.786;21.594;2023-07-13T02:00:44;97180.02;;;17.01;81.27
50696;BME280;36665;51.786;21.594;2023-07-13T02:09:07;97171.61;;;16.99;81.24
50696;BME280;36665;51.786;21.594;2023-07-13T02:17:30;97164.21;;;16.97;81.32
50696;BME280;36665;51.786;21.594;2023-07-13T02:25:57;97157.39;;;16.96;81.31
50696;BME280;36665;51.786;21.594;2023-07-13T02:34:20;97143.77;;;16.92;81.31
50696;BME280;36665;51.786;21.594;2023-07-13T02:42:43;97097.05;;;16.82;81.11
50696;BME280;36665;51.786;21.594;2023-07-13T03:05:39;97191.77;;;17.09;81.17
50696;BME280;36665;51.786;21.594;2023-07-13T03:14:03;97253.80;;;17.20;81.12
50696;BME280;36665;51.786;21.594;2023-07-13T03:22:29;97241.22;;;17.18;81.29
50696;BME280;36665;51.786;21.594;2023-07-13T03:31:09;97257.77;;;17.21;81.31
50696;BME280;36665;51.786;21.594;2023-07-13T03:39:33;97272.73;;;17.24;81.35
50696;BME280;36665;51.786;21.594;2023-07-13T03:47:57;97317.98;;;17.34;81.48
50696;BME280;36665;51.786;21.594;2023-07-13T03:56:22;97443.09;;;17.63;81.45
50696;BME280;36665;51.786;21.594;2023-07-13T04:04:46;97614.11;;;18.02;81.55
50696;BME280;36665;51.786;21.594;2023-07-13T04:13:09;97872.90;;;18.62;81.94
50696;BME280;36665;51.786;21.594;2023-07-13T04:21:32;98241.27;;;19.43;82.05
50696;BME280;36665;51.786;21.594;2023-07-13T04:29:55;98552.33;;;20.11;82.02
50696;BME280;36665;51.786;21.594;2023-07-13T04:38:18;98890.71;;;20.85;82.44
50696;BME280;36665;51.786;21.594;2023-07-13T04:46:41;99083.12;;;21.27;82.98
50696;BME280;36665;51.786;21.594;2023-07-13T04:55:04;99080.77;;;21.25;82.89
50696;BME280;36665;51.786;21.594;2023-07-13T05:03:28;99194.84;;;21.49;82.88
50696;BME280;36665;51.786;21.594;2023-07-13T05:11:53;99188.61;;;21.48;82.88
50696;BME280;36665;51.786;21.594;2023-07-13T05:20:17;99139.70;;;21.38;83.07
50696;BME280;36665;51.786;21.594;2023-07-13T05:28:42;99112.26;;;21.33;82.95
50696;BME280;36665;51.786;21.594;2023-07-13T05:37:05;99160.88;;;21.42;82.75
50696;BME280;36665;51.786;21.594;2023-07-13T05:45:28;99230.02;;;21.59;82.76
50696;BME280;36665;51.786;21.594;2023-07-13T05:53:51;99304.26;;;21.74;82.87
50696;BME280;36665;51.786;21.594;2023-07-13T06:02:14;99493.00;;;22.15;82.91
50696;BME280;36665;51.786;21.594;2023-07-13T06:10:37;99674.88;;;22.53;83.18
50696;BME280;36665;51.786;21.594;2023-07-13T06:19:00;99700.48;;;22.58;83.09
50696;BME280;36665;51.786;21.594;2023-07-13T06:27:23;99685.19;;;22.55;83.02
50696;BME280;36665;51.786;21.594;2023-07-13T06:35:46;99617.20;;;22.42;82.92
50696;BME280;36665;51.786;21.594;2023-07-13T06:44:09;99831.37;;;22.87;83.20
50696;BME280;36665;51.786;21.594;2023-07-13T06:52:32;100655.29;;;24.58;83.56
50696;BME280;36665;51.786;21.594;2023-07-13T07:00:55;100678.52;;;24.60;83.84
50696;BME280;36665;51.786;21.594;2023-07-13T07:09:18;100658.76;;;24.54;83.86
50696;BME280;36665;51.786;21.594;2023-07-13T07:17:41;100584.40;;;24.40;83.91
50696;BME280;36665;51.786;21.594;2023-07-13T07:26:05;100438.81;;;24.11;83.79
50696;BME280;36665;51.786;21.594;2023-07-13T07:34:28;100337.83;;;23.91;83.66
50696;BME280;36665;51.786;21.594;2023-07-13T07:42:51;100321.83;;;23.88;83.57
50696;BME280;36665;51.786;21.594;2023-07-13T07:51:14;100315.30;;;23.87;83.39
50696;BME280;36665;51.786;21.594;2023-07-13T07:59:37;100257.29;;;23.76;83.47
50696;BME280;36665;51.786;21.594;2023-07-13T08:08:04;100217.27;;;23.69;83.44
50696;BME280;36665;51.786;21.594;2023-07-13T08:16:27;100286.33;;;23.82;83.23
50696;BME280;36665;51.786;21.594;2023-07-13T08:24:50;100440.41;;;24.14;83.38
50696;BME280;36665;51.786;21.594;2023-07-13T08:33:19;100538.39;;;24.34;83.39
50696;BME280;36665;51.786;21.594;2023-07-13T08:41:48;100626.90;;;24.53;83.53
50696;BME280;36665;51.786;21.594;2023-07-13T08:50:17;100666.38;;;24.61;83.56
50696;BME280;36665;51.786;21.594;2023-07-13T08:58:44;100685.70;;;24.64;83.54
50696;BME280;36665;51.786;21.594;2023-07-13T09:07:29;100695.48;;;24.67;83.57
50696;BME280;36665;51.786;21.594;2023-07-13T09:15:56;100792.02;;;24.87;83.68
50696;BME280;36665;51.786;21.594;2023-07-13T09:25:10;100950.23;;;25.19;83.65
50696;BME280;36665;51.786;21.594;2023-07-13T09:33:21;101105.27;;;25.50;83.64
50696;BME280;36665;51.786;21.594;2023-07-13T09:42:00;101435.99;;;26.16;83.97
50696;BME280;36665;51.786;21.594;2023-07-13T09:50:24;101858.32;;;26.98;84.27
50696;BME280;36665;51.786;21.594;2023-07-13T09:58:48;102170.40;;;27.59;84.58
50696;BME280;36665;51.786;21.594;2023-07-13T10:07:12;102403.59;;;28.02;84.66
50696;BME280;36665;51.786;21.594;2023-07-13T10:15:52;102618.31;;;28.43;84.86
50696;BME280;36665;51.786;21.594;2023-07-13T10:32:41;102299.48;;;27.83;84.62
50696;BME280;36665;51.786;21.594;2023-07-13T10:41:10;102053.66;;;27.36;84.36
50696;BME280;36665;51.786;21.594;2023-07-13T10:49:35;102259.59;;;27.77;84.44
50696;BME280;36665;51.786;21.594;2023-07-13T11:06:41;102199.73;;;27.67;84.38
50696;BME280;36665;51.786;21.594;2023-07-13T11:15:11;102092.21;;;27.46;84.32
50696;BME280;36665;51.786;21.594;2023-07-13T11:23:42;101978.52;;;27.24;84.10
50696;BME280;36665;51.786;21.594;2023-07-13T11:32:29;101849.29;;;26.98;84.11
50696;BME280;36665;51.786;21.594;2023-07-13T11:40:54;101782.88;;;26.86;83.99
50696;BME280;36665;51.786;21.594;2023-07-13T11:49:21;101706.73;;;26.72;83.80
50696;BME280;36665;51.786;21.594;2023-07-13T11:57:59;101602.65;;;26.51;83.96
50696;BME280;36665;51.786;21.594;2023-07-13T12:06:34;101476.44;;;26.27;83.92
50696;BME280;36665;51.786;21.594;2023-07-13T12:14:59;101392.36;;;26.10;83.73
50696;BME280;36665;51.786;21.594;2023-07-13T12:31:50;101295.91;;;25.91;83.88
50696;BME280;36665;51.786;21.594;2023-07-13T12:40:17;100868.84;;;25.04;83.71
50696;BME280;36665;51.786;21.594;2023-07-13T12:48:49;100007.65;;;23.27;83.37
50696;BME280;36665;51.786;21.594;2023-07-13T12:57:26;99265.55;;;21.71;83.10
50696;BME280;36665;51.786;21.594;2023-07-13T13:05:49;98598.34;;;20.26;82.42
50696;BME280;36665;51.786;21.594;2023-07-13T13:14:12;98183.73;;;19.35;82.21
50696;BME280;36665;51.786;21.594;2023-07-13T13:22:35;97893.22;;;18.71;81.94
50696;BME280;36665;51.786;21.594;2023-07-13T13:30:58;97685.20;;;18.25;81.83
50696;BME280;36665;51.786;21.594;2023-07-13T13:39:32;97561.18;;;17.97;81.79
50696;BME280;36665;51.786;21.594;2023-07-13T13:47:57;97491.79;;;17.81;81.67
50696;BME280;36665;51.786;21.594;2023-07-13T13:56:47;97447.78;;;17.72;81.79
50696;BME280;36665;51.786;21.594;2023-07-13T14:05:14;97420.52;;;17.66;81.67
50696;BME280;36665;51.786;21.594;2023-07-13T14:13:43;97393.55;;;17.61;81.68
50696;BME280;36665;51.786;21.594;2023-07-13T14:22:09;97412.31;;;17.65;82.01
50696;BME280;36665;51.786;21.594;2023-07-13T14:30:33;97488.43;;;17.83;82.06
50696;BME280;36665;51.786;21.594;2023-07-13T14:39:14;97570.02;;;18.02;82.14
50696;BME280;36665;51.786;21.594;2023-07-13T14:47:42;97626.79;;;18.15;82.33
50696;BME280;36665;51.786;21.594;2023-07-13T14:56:11;97643.48;;;18.18;82.54
50696;BME280;36665;51.786;21.594;2023-07-13T15:04:35;97646.20;;;18.19;82.49
50696;BME280;36665;51.786;21.594;2023-07-13T15:13:26;97655.50;;;18.21;82.34
50696;BME280;36665;51.786;21.594;2023-07-13T15:21:54;97651.56;;;18.20;82.49
50696;BME280;36665;51.786;21.594;2023-07-13T15:30:20;97639.92;;;18.18;82.56
50696;BME280;36665;51.786;21.594;2023-07-13T15:38:45;97662.83;;;18.23;82.47
50696;BME280;36665;51.786;21.594;2023-07-13T15:47:12;97717.92;;;18.37;82.35
50696;BME280;36665;51.786;21.594;2023-07-13T15:55:45;97778.22;;;18.51;82.52
50696;BME280;36665;51.786;21.594;2023-07-13T16:04:09;97838.85;;;18.64;82.64
50696;BME280;36665;51.786;21.594;2023-07-13T16:12:34;97884.91;;;18.74;82.61
50696;BME280;36665;51.786;21.594;2023-07-13T16:20:58;97925.61;;;18.84;82.65
50696;BME280;36665;51.786;21.594;2023-07-13T16:29:26;97949.77;;;18.89;82.62
50696;BME280;36665;51.786;21.594;2023-07-13T16:37:50;97973.27;;;18.94;82.77
50696;BME280;36665;51.786;21.594;2023-07-13T16:46:42;97967.00;;;18.94;82.64
50696;BME280;36665;51.786;21.594;2023-07-13T16:55:11;97961.48;;;18.92;82.73
50696;BME280;36665;51.786;21.594;2023-07-13T17:03:41;97932.68;;;18.87;82.84
50696;BME280;36665;51.786;21.594;2023-07-13T17:12:05;97919.63;;;18.84;82.67
50696;BME280;36665;51.786;21.594;2023-07-13T17:20:36;97895.80;;;18.80;82.50
50696;BME280;36665;51.786;21.594;2023-07-13T17:29:03;97870.05;;;18.74;82.57
50696;BME280;36665;51.786;21.594;2023-07-13T17:37:27;97850.73;;;18.70;82.60
50696;BME280;36665;51.786;21.594;2023-07-13T17:45:55;97836.73;;;18.67;82.76
50696;BME280;36665;51.786;21.594;2023-07-13T17:54:19;97782.66;;;18.55;82.53
50696;BME280;36665;51.786;21.594;2023-07-13T18:02:44;97741.59;;;18.45;82.48
50696;BME280;36665;51.786;21.594;2023-07-13T18:11:11;97708.95;;;18.39;82.34
50696;BME280;36665;51.786;21.594;2023-07-13T18:19:39;97682.97;;;18.32;82.52
50696;BME280;36665;51.786;21.594;2023-07-13T18:28:04;97655.73;;;18.27;82.63
50696;BME280;36665;51.786;21.594;2023-07-13T18:36:32;97616.73;;;18.18;82.57
50696;BME280;36665;51.786;21.594;2023-07-13T18:44:58;97590.69;;;18.12;82.47
50696;BME280;36665;51.786;21.594;2023-07-13T18:53:23;97567.75;;;18.07;82.67
50696;BME280;36665;51.786;21.594;2023-07-13T19:01:47;97546.75;;;18.02;82.66
50696;BME280;36665;51.786;21.594;2023-07-13T19:10:13;97522.13;;;17.98;82.50
50696;BME280;36665;51.786;21.594;2023-07-13T19:18:38;97505.54;;;17.95;82.66
50696;BME280;36665;51.786;21.594;2023-07-13T19:27:02;97521.80;;;17.98;82.67
50696;BME280;36665;51.786;21.594;2023-07-13T19:35:26;97506.36;;;17.95;82.68
50696;BME280;36665;51.786;21.594;2023-07-13T19:43:54;97487.79;;;17.90;82.68
50696;BME280;36665;51.786;21.594;2023-07-13T19:52:20;97480.10;;;17.89;82.78
50696;BME280;36665;51.786;21.594;2023-07-13T20:00:44;97462.14;;;17.86;82.71
50696;BME280;36665;51.786;21.594;2023-07-13T20:09:16;97450.14;;;17.83;82.65
50696;BME280;36665;51.786;21.594;2023-07-13T20:18:00;97425.55;;;17.77;82.51
50696;BME280;36665;51.786;21.594;2023-07-13T20:26:24;97397.81;;;17.71;82.63
50696;BME280;36665;51.786;21.594;2023-07-13T20:34:50;97371.67;;;17.65;82.68
50696;BME280;36665;51.786;21.594;2023-07-13T20:43:13;97350.20;;;17.59;82.85
50696;BME280;36665;51.786;21.594;2023-07-13T20:51:37;97323.45;;;17.54;82.73
50696;BME280;36665;51.786;21.594;2023-07-13T21:00:02;97305.77;;;17.51;82.76
50696;BME280;36665;51.786;21.594;2023-07-13T21:08:26;97274.20;;;17.44;82.64
50696;BME280;36665;51.786;21.594;2023-07-13T21:16:50;97251.98;;;17.39;82.56
50696;BME280;36665;51.786;21.594;2023-07-13T21:25:15;97246.00;;;17.38;82.55
50696;BME280;36665;51.786;21.594;2023-07-13T21:33:39;97233.20;;;17.36;82.63
50696;BME280;36665;51.786;21.594;2023-07-13T21:42:03;97208.64;;;17.30;82.50
50696;BME280;36665;51.786;21.594;2023-07-13T21:50:35;97172.97;;;17.21;82.57
50696;BME280;36665;51.786;21.594;2023-07-13T21:59:00;97133.98;;;17.13;82.54
50696;BME280;36665;51.786;21.594;2023-07-13T22:07:24;97091.57;;;17.05;82.39
50696;BME280;36665;51.786;21.594;2023-07-13T22:15:49;97097.87;;;17.07;82.53
50696;BME280;36665;51.786;21.594;2023-07-13T22:24:15;97112.41;;;17.09;82.67
50696;BME280;36665;51.786;21.594;2023-07-13T22:32:44;97088.07;;;17.04;82.64
50696;BME280;36665;51.786;21.594;2023-07-13T22:41:12;97073.11;;;17.01;82.54
50696;BME280;36665;51.786;21.594;2023-07-13T22:49:36;97051.61;;;16.96;82.66
50696;BME280;36665;51.786;21.594;2023-07-13T22:58:00;97021.70;;;16.89;82.59
50696;BME280;36665;51.786;21.594;2023-07-13T23:06:37;96997.52;;;16.84;82.66
50696;BME280;36665;51.786;21.594;2023-07-13T23:15:04;96946.54;;;16.73;82.77
50696;BME280;36665;51.786;21.594;2023-07-13T23:23:28;96897.66;;;16.61;82.55
50696;BME280;36665;51.786;21.594;2023-07-13T23:31:53;96862.20;;;16.53;82.51
50696;BME280;36665;51.786;21.594;2023-07-13T23:40:20;96834.94;;;16.48;82.60
50696;BME280;36665;51.786;21.594;2023-07-13T23:48:44;96811.04;;;16.43;82.51
50696;BME280;36665;51.786;21.594;2023-07-13T23:57:08;96800.10;;;16.40;82.60
